< < Back
Terminal Aerodrome Forecast


Current Version              Previous Versions:   1  2  3  4  5  6  7  8  9  

Terminal Aerodrome Forecast

165
FTUS42 KFFC 301930 AAA
TAFATL
TAF AMD
KATL 301930Z 3020/3124 33015G27KT P6SM SKC
     FM310000 33008KT P6SM SKC
     FM311200 VRB03KT P6SM SCT180=

Latest METAR

911
SAUS70 KWBC 302100 RRA
MTRATL
METAR KATL 302052Z 33015G21KT 10SM FEW250 10/M07 A3027 RMK AO2 SLP252
T01001067 55008


USA.gov is the U.S. government's official web portal to all federal, state and local government web resources and services.